createdAt,value
2018-04-25T00:02:14.235Z,71.90
2018-04-25T00:04:43.973Z,72.40
2018-04-25T00:07:12.871Z,72.30
2018-04-25T00:09:41.855Z,71.70
2018-04-25T00:12:10.861Z,71.60
2018-04-25T00:14:39.741Z,71.90
2018-04-25T00:17:08.642Z,71.70
2018-04-25T00:19:37.573Z,71.80
2018-04-25T00:22:06.488Z,72.10
2018-04-25T00:24:35.444Z,72.10
2018-04-25T00:27:04.411Z,72.20
2018-04-25T00:29:33.269Z,71.80
2018-04-25T00:32:02.171Z,71.80
2018-04-25T00:34:31.049Z,72.20
2018-04-25T00:36:59.924Z,71.60
2018-04-25T00:39:29.574Z,72.30
2018-04-25T00:41:58.476Z,72.30
2018-04-25T00:47:00.949Z,72.70
2018-04-25T00:49:29.804Z,73.00
2018-04-25T00:51:59.590Z,73.60
2018-04-25T00:54:30.416Z,73.50
2018-04-25T00:56:59.415Z,73.50
2018-04-25T00:59:28.303Z,73.70
2018-04-25T01:01:57.197Z,73.90
2018-04-25T01:04:26.104Z,74.10
2018-04-25T01:06:55.048Z,74.30
2018-04-25T01:09:23.969Z,74.40
2018-04-25T01:11:52.995Z,74.60
2018-04-25T01:14:21.816Z,74.50
2018-04-25T01:16:50.716Z,74.60
2018-04-25T01:19:19.629Z,74.70
2018-04-25T01:21:51.343Z,74.80
2018-04-25T01:24:20.243Z,74.90
2018-04-25T01:26:53.666Z,75.10
2018-04-25T01:29:23.509Z,75.40
2018-04-25T01:31:56.934Z,75.00
2018-04-25T01:37:35.501Z,75.50
2018-04-25T01:40:04.366Z,75.50
2018-04-25T01:45:50.393Z,75.90
2018-04-25T01:48:32.587Z,75.90
2018-04-25T01:51:00.753Z,75.80
2018-04-25T01:53:47.676Z,76.20
2018-04-25T01:56:35.339Z,76.40
2018-04-25T01:59:21.942Z,76.90
2018-04-25T02:01:50.073Z,77.20
2018-04-25T02:04:18.969Z,77.30
2018-04-25T02:06:47.882Z,77.50
2018-04-25T02:09:16.744Z,77.60
2018-04-25T02:11:45.618Z,77.40
2018-04-25T02:14:14.505Z,77.60
2018-04-25T02:16:43.388Z,77.30
2018-04-25T02:19:13.094Z,76.80
2018-04-25T02:21:42.823Z,76.60
2018-04-25T02:24:12.526Z,76.40
2018-04-25T02:26:41.433Z,76.40
2018-04-25T02:29:10.310Z,75.30
2018-04-25T02:31:39.168Z,75.80
2018-04-25T02:34:08.102Z,76.40
2018-04-25T02:36:37.009Z,76.80
2018-04-25T02:39:05.902Z,77.00
2018-04-25T02:41:34.794Z,77.20
2018-04-25T02:44:03.704Z,77.10
2018-04-25T02:46:39.335Z,77.30
2018-04-25T02:49:08.315Z,77.10
2018-04-25T02:51:37.234Z,77.30
2018-04-25T02:54:08.063Z,77.00
2018-04-25T02:56:37.542Z,77.20
2018-04-25T02:59:06.396Z,77.10
2018-04-25T03:01:36.094Z,77.70
2018-04-25T03:04:05.018Z,77.70
2018-04-25T03:06:33.911Z,78.00
2018-04-25T03:09:02.787Z,78.10
2018-04-25T03:11:31.697Z,78.40
2018-04-25T03:14:00.597Z,79.10
2018-04-25T03:16:29.519Z,78.40
2018-04-25T03:18:58.416Z,78.50
2018-04-25T03:21:27.318Z,78.70
2018-04-25T03:23:56.222Z,78.80
2018-04-25T03:26:26.111Z,79.60
2018-04-25T03:28:55.070Z,79.60
2018-04-25T03:31:23.978Z,78.90
2018-04-25T03:33:52.922Z,78.80
2018-04-25T03:36:22.560Z,79.50
2018-04-25T03:38:51.459Z,79.40
2018-04-25T03:41:20.380Z,77.90
2018-04-25T03:43:49.255Z,78.40
2018-04-25T03:46:18.136Z,79.60
2018-04-25T03:48:47.032Z,80.30
2018-04-25T03:51:16.003Z,80.70
2018-04-25T03:53:44.868Z,81.00
2018-04-25T03:56:13.881Z,81.20
2018-04-25T03:58:42.790Z,80.90
2018-04-25T04:01:11.658Z,80.90
2018-04-25T04:03:40.883Z,81.00
2018-04-25T04:06:09.790Z,80.90
2018-04-25T04:08:38.648Z,80.10
2018-04-25T04:11:07.598Z,79.10
2018-04-25T04:13:36.647Z,79.30
2018-04-25T04:16:05.510Z,80.30
2018-04-25T04:18:34.438Z,79.40
2018-04-25T04:21:03.339Z,78.70
2018-04-25T04:23:32.285Z,78.50
2018-04-25T04:26:01.202Z,78.30
2018-04-25T04:28:30.289Z,78.50
2018-04-25T04:31:00.320Z,79.10
2018-04-25T04:33:30.373Z,78.60
2018-04-25T04:36:04.834Z,78.50
2018-04-25T04:38:33.743Z,78.40
2018-04-25T04:41:02.635Z,78.40
2018-04-25T04:43:31.520Z,78.40
2018-04-25T04:46:00.425Z,78.00
2018-04-25T04:48:29.331Z,77.70
2018-04-25T04:50:58.279Z,77.70
2018-04-25T04:53:27.299Z,77.30
2018-04-25T04:55:56.272Z,76.60
2018-04-25T04:58:25.330Z,76.70
2018-04-25T05:00:54.248Z,75.50
2018-04-25T05:03:23.174Z,74.40
2018-04-25T05:05:52.161Z,72.70
2018-04-25T05:08:23.221Z,72.10
2018-04-25T05:10:52.151Z,70.80
2018-04-25T05:13:21.069Z,70.20
2018-04-25T05:15:50.044Z,68.70
2018-04-25T05:18:18.923Z,66.60
2018-04-25T05:20:47.887Z,64.70
2018-04-25T05:23:17.590Z,60.70
2018-04-25T05:25:46.490Z,60.60
2018-04-25T05:28:15.400Z,58.50
2018-04-25T05:30:44.281Z,56.30
2018-04-25T05:33:13.990Z,53.90
2018-04-25T05:35:42.907Z,51.60
2018-04-25T05:38:11.860Z,51.30
2018-04-25T05:40:41.578Z,49.30
2018-04-25T05:43:10.504Z,49.20
2018-04-25T05:45:39.464Z,47.20
2018-04-25T05:48:08.382Z,46.00
2018-04-25T05:50:37.231Z,44.40
2018-04-25T05:53:06.888Z,44.20
2018-04-25T05:55:35.794Z,44.20
2018-04-25T05:58:04.684Z,44.10
2018-04-25T06:00:33.754Z,44.70
2018-04-25T06:03:02.648Z,44.90
2018-04-25T06:05:31.516Z,45.40
2018-04-25T06:08:00.434Z,44.50
2018-04-25T06:10:29.307Z,44.20
2018-04-25T06:12:58.180Z,45.30
2018-04-25T06:15:27.101Z,45.10
2018-04-25T06:17:55.969Z,45.00
2018-04-25T06:20:24.864Z,41.70
2018-04-25T06:22:53.749Z,40.20
2018-04-25T06:25:22.614Z,38.50
2018-04-25T06:27:52.265Z,36.60
2018-04-25T06:30:21.184Z,36.50
2018-04-25T06:32:50.044Z,35.90
2018-04-25T06:35:18.900Z,36.60
2018-04-25T06:37:48.158Z,36.30
2018-04-25T06:40:17.033Z,35.60
2018-04-25T06:42:45.946Z,35.50
2018-04-25T06:45:14.874Z,34.70
2018-04-25T06:47:43.792Z,33.50
2018-04-25T06:50:12.709Z,34.50
2018-04-25T06:52:41.604Z,33.50
2018-04-25T06:55:10.477Z,33.00
2018-04-25T06:57:39.369Z,32.40
2018-04-25T07:00:08.308Z,30.60
2018-04-25T07:02:37.936Z,29.50
2018-04-25T07:05:06.784Z,29.40
2018-04-25T07:07:35.653Z,29.30
2018-04-25T07:10:04.536Z,29.70
2018-04-25T07:12:33.448Z,29.90
2018-04-25T07:15:02.319Z,29.80
2018-04-25T07:17:31.195Z,30.10
2018-04-25T07:20:00.082Z,30.80
2018-04-25T07:22:28.990Z,30.60
2018-04-25T07:24:57.884Z,29.60
2018-04-25T07:27:26.798Z,28.80
2018-04-25T07:29:55.744Z,28.80
2018-04-25T07:32:24.589Z,28.50
2018-04-25T07:34:54.229Z,28.20
2018-04-25T07:37:23.133Z,28.20
2018-04-25T07:39:52.008Z,27.90
2018-04-25T07:42:20.912Z,27.10
2018-04-25T07:44:49.836Z,27.20
2018-04-25T07:47:18.729Z,27.20
2018-04-25T07:49:47.612Z,27.00
2018-04-25T07:52:16.576Z,26.70
2018-04-25T07:54:45.401Z,27.00
2018-04-25T07:57:14.237Z,27.90
2018-04-25T07:59:43.169Z,27.90
2018-04-25T08:02:12.170Z,28.20
2018-04-25T08:04:41.019Z,27.70
2018-04-25T08:07:09.962Z,27.60
2018-04-25T08:09:38.833Z,28.20
2018-04-25T08:12:25.258Z,28.40
2018-04-25T08:15:12.476Z,28.50
2018-04-25T08:18:03.629Z,28.40
2018-04-25T08:20:51.070Z,28.60
2018-04-25T08:23:19.995Z,28.50
2018-04-25T08:25:48.892Z,29.30
2018-04-25T08:28:17.787Z,30.00
2018-04-25T08:30:47.447Z,29.70
2018-04-25T08:33:16.326Z,29.60
2018-04-25T08:35:45.220Z,29.40
2018-04-25T08:38:14.164Z,30.30
2018-04-25T08:40:43.053Z,30.20
2018-04-25T08:43:11.950Z,31.20
2018-04-25T08:45:41.626Z,28.90
2018-04-25T08:48:10.558Z,29.00
2018-04-25T08:50:40.223Z,30.30
2018-04-25T08:53:09.138Z,30.20
2018-04-25T08:55:38.016Z,30.00
2018-04-25T08:58:06.887Z,30.20
2018-04-25T09:00:36.135Z,30.00
2018-04-25T09:03:05.017Z,30.40
2018-04-25T09:05:34.747Z,31.00
2018-04-25T09:08:03.647Z,30.90
2018-04-25T09:10:32.557Z,31.50
2018-04-25T09:13:01.444Z,31.60
2018-04-25T09:15:30.506Z,31.40
2018-04-25T09:17:59.422Z,33.00
2018-04-25T09:20:29.095Z,32.40
2018-04-25T09:22:58.741Z,33.50
2018-04-25T09:25:27.625Z,33.50
2018-04-25T09:27:56.493Z,32.70
2018-04-25T09:30:26.168Z,33.30
2018-04-25T09:32:55.044Z,33.20
2018-04-25T09:35:23.925Z,33.40
2018-04-25T09:37:52.853Z,33.00
2018-04-25T09:40:21.741Z,34.30
2018-04-25T09:42:50.681Z,33.90
2018-04-25T09:45:19.590Z,33.80
2018-04-25T09:47:48.453Z,33.90
2018-04-25T09:50:17.346Z,32.90
2018-04-25T09:52:46.250Z,32.50
2018-04-25T09:55:15.141Z,32.50
2018-04-25T09:57:44.096Z,32.50
2018-04-25T10:00:13.088Z,33.30
2018-04-25T10:02:42.766Z,34.20
2018-04-25T10:05:11.697Z,34.20
2018-04-25T10:07:40.733Z,33.20
2018-04-25T10:10:09.673Z,33.90
2018-04-25T10:12:39.335Z,35.20
2018-04-25T10:15:08.250Z,32.30
2018-04-25T10:17:37.175Z,32.60
2018-04-25T10:20:06.061Z,33.00
2018-04-25T10:22:34.985Z,32.90
2018-04-25T10:25:03.856Z,32.90
2018-04-25T10:27:33.520Z,34.00
2018-04-25T10:30:02.441Z,34.00
2018-04-25T10:32:31.342Z,34.60
2018-04-25T10:35:00.256Z,34.80
2018-04-25T10:37:29.228Z,34.50
2018-04-25T10:39:58.125Z,32.60
2018-04-25T10:42:27.130Z,34.20
2018-04-25T10:44:56.079Z,33.90
2018-04-25T10:47:25.776Z,33.90
2018-04-25T10:49:55.449Z,35.50
2018-04-25T10:52:24.374Z,34.80
2018-04-25T10:54:53.289Z,34.00
2018-04-25T10:57:22.180Z,35.20
2018-04-25T10:59:52.852Z,34.40
2018-04-25T11:02:21.827Z,34.40
2018-04-25T11:04:51.438Z,30.30
2018-04-25T11:07:20.366Z,30.20
2018-04-25T11:09:49.476Z,30.30
2018-04-25T11:12:19.157Z,29.40
2018-04-25T11:14:48.104Z,28.90
2018-04-25T11:17:16.978Z,29.60
2018-04-25T11:19:45.955Z,29.00
2018-04-25T11:22:14.892Z,29.50
2018-04-25T11:24:43.764Z,31.10
2018-04-25T11:27:12.685Z,30.90
2018-04-25T11:29:42.979Z,29.50
2018-04-25T11:32:11.888Z,28.70
2018-04-25T11:34:40.836Z,29.80
2018-04-25T11:37:10.518Z,29.40
2018-04-25T11:39:39.467Z,29.40
2018-04-25T11:42:08.392Z,29.80
2018-04-25T11:44:37.553Z,29.30
2018-04-25T11:47:06.500Z,29.50
2018-04-25T11:49:35.391Z,28.70
2018-04-25T11:52:04.322Z,29.30
2018-04-25T11:54:33.223Z,30.30
2018-04-25T11:57:02.117Z,28.70
2018-04-25T11:59:31.092Z,29.50
2018-04-25T12:02:00.009Z,29.10
2018-04-25T12:04:28.877Z,31.30
2018-04-25T12:06:57.822Z,29.40
2018-04-25T12:09:26.700Z,29.00
2018-04-25T12:11:55.651Z,29.00
2018-04-25T12:14:24.621Z,29.80
2018-04-25T12:16:54.252Z,30.00
2018-04-25T12:19:23.174Z,29.90
2018-04-25T12:21:52.090Z,29.70
2018-04-25T12:24:21.056Z,29.90
2018-04-25T12:26:50.648Z,30.00
2018-04-25T12:29:19.613Z,30.00
2018-04-25T12:31:48.507Z,29.10
2018-04-25T12:34:17.418Z,29.10
2018-04-25T12:36:46.370Z,29.90
2018-04-25T12:39:16.042Z,30.40
2018-04-25T12:41:44.939Z,30.20
2018-04-25T12:44:13.910Z,30.60
2018-04-25T12:46:42.807Z,30.30
2018-04-25T12:49:11.750Z,30.30
2018-04-25T12:51:41.412Z,30.30
2018-04-25T12:54:10.281Z,30.20
2018-04-25T12:56:39.263Z,31.60
2018-04-25T12:59:08.157Z,31.00
2018-04-25T13:01:37.115Z,32.20
2018-04-25T13:04:06.752Z,31.10
2018-04-25T13:06:35.628Z,31.00
2018-04-25T13:09:04.645Z,32.00
2018-04-25T13:11:34.756Z,31.90
2018-04-25T13:14:03.734Z,32.70
2018-04-25T13:16:32.644Z,32.00
2018-04-25T13:19:01.631Z,32.60
2018-04-25T13:21:30.644Z,32.60
2018-04-25T13:23:59.581Z,33.10
2018-04-25T13:26:29.241Z,33.50
2018-04-25T13:28:58.231Z,33.50
2018-04-25T13:31:27.114Z,35.90
2018-04-25T13:33:56.059Z,34.20
2018-04-25T13:36:25.772Z,34.00
2018-04-25T13:38:55.417Z,34.20
2018-04-25T13:41:25.071Z,34.10
2018-04-25T13:43:53.993Z,35.70
2018-04-25T13:46:23.656Z,36.50
2018-04-25T13:48:52.846Z,36.50
2018-04-25T13:51:21.760Z,35.20
2018-04-25T13:53:50.630Z,34.50
2018-04-25T13:56:19.523Z,35.60
2018-04-25T13:58:48.447Z,35.50
2018-04-25T14:01:18.130Z,36.00
2018-04-25T14:03:47.071Z,35.90
2018-04-25T14:06:16.077Z,35.20
2018-04-25T14:08:44.904Z,35.00
2018-04-25T14:11:13.803Z,35.20
2018-04-25T14:13:42.694Z,35.60
2018-04-25T14:16:11.852Z,36.60
2018-04-25T14:18:40.762Z,35.30
2018-04-25T14:21:09.704Z,34.80
2018-04-25T14:23:38.639Z,34.40
2018-04-25T14:26:07.695Z,34.50
2018-04-25T14:28:36.642Z,34.70
2018-04-25T14:31:05.598Z,35.20
2018-04-25T14:33:34.486Z,35.40
2018-04-25T14:36:03.396Z,36.30
2018-04-25T14:38:32.420Z,36.20
2018-04-25T14:41:01.395Z,35.50
2018-04-25T14:43:30.323Z,36.10
2018-04-25T14:46:01.658Z,36.20
2018-04-25T14:48:32.402Z,36.50
2018-04-25T14:51:01.320Z,36.40
2018-04-25T14:53:30.228Z,36.30
2018-04-25T14:55:59.143Z,37.00
2018-04-25T14:58:28.123Z,36.70
2018-04-25T15:00:57.077Z,36.70
2018-04-25T15:03:25.984Z,37.00
2018-04-25T15:05:54.951Z,37.30
2018-04-25T15:08:23.897Z,36.90
2018-04-25T15:10:53.566Z,37.50
2018-04-25T15:13:22.467Z,36.80
2018-04-25T15:15:51.426Z,37.50
2018-04-25T15:18:21.160Z,38.30
2018-04-25T15:20:50.048Z,38.20
2018-04-25T15:23:18.910Z,37.80
2018-04-25T15:25:48.597Z,38.20
2018-04-25T15:28:17.597Z,38.10
2018-04-25T15:30:46.480Z,38.10
2018-04-25T15:33:18.808Z,38.80
2018-04-25T15:35:47.702Z,37.70
2018-04-25T15:38:16.618Z,37.30
2018-04-25T15:40:45.522Z,38.00
2018-04-25T15:43:14.425Z,38.20
2018-04-25T15:45:43.374Z,37.60
2018-04-25T15:48:12.312Z,37.60
2018-04-25T15:50:41.217Z,36.80
2018-04-25T15:53:10.138Z,37.10
2018-04-25T15:55:39.006Z,37.50
2018-04-25T15:58:07.909Z,36.10
2018-04-25T16:00:36.845Z,35.90
2018-04-25T16:03:05.741Z,36.40
2018-04-25T16:05:34.674Z,37.10
2018-04-25T16:08:03.929Z,37.20
2018-04-25T16:10:33.630Z,37.90
2018-04-25T16:13:02.712Z,37.30
2018-04-25T16:15:31.687Z,37.80
2018-04-25T16:18:16.872Z,37.70
2018-04-25T16:20:46.679Z,38.60
2018-04-25T16:23:15.746Z,38.50
2018-04-25T16:25:44.769Z,38.60
2018-04-25T16:28:13.758Z,39.10
2018-04-25T16:30:42.769Z,38.70
2018-04-25T16:33:11.928Z,38.90
2018-04-25T16:35:40.897Z,39.40
2018-04-25T16:38:10.646Z,39.50
2018-04-25T16:40:39.613Z,39.50
2018-04-25T16:43:08.543Z,39.80
2018-04-25T16:45:37.444Z,39.80
2018-04-25T16:48:06.485Z,40.00
2018-04-25T16:50:36.642Z,40.10
2018-04-25T16:53:05.592Z,40.00
2018-04-25T16:55:35.312Z,40.60
2018-04-25T16:58:04.367Z,40.60
2018-04-25T17:00:33.354Z,41.10
2018-04-25T17:03:03.132Z,41.10
2018-04-25T17:05:32.017Z,41.10
2018-04-25T17:08:01.744Z,41.20
2018-04-25T17:10:30.676Z,41.20
2018-04-25T17:13:00.509Z,42.50
2018-04-25T17:15:31.634Z,42.40
2018-04-25T17:18:00.572Z,42.20
2018-04-25T17:20:32.483Z,43.40
2018-04-25T17:23:01.618Z,43.40
2018-04-25T17:25:30.591Z,44.20
2018-04-25T17:27:59.512Z,44.30
2018-04-25T17:30:28.683Z,46.20
2018-04-25T17:32:57.832Z,46.50
2018-04-25T17:35:26.984Z,48.00
2018-04-25T17:37:56.024Z,48.00
2018-04-25T17:40:42.388Z,48.00
2018-04-25T17:43:14.947Z,47.60
2018-04-25T17:45:46.825Z,47.50
2018-04-25T18:02:12.125Z,48.30
2018-04-25T18:04:41.063Z,48.30
2018-04-25T18:07:10.356Z,48.60
2018-04-25T18:09:39.329Z,48.70
2018-04-25T18:12:08.247Z,49.30
2018-04-25T18:14:37.193Z,49.70
2018-04-25T18:17:06.911Z,50.50
2018-04-25T18:19:35.944Z,50.60
2018-04-25T18:22:12.594Z,50.30
2018-04-25T18:24:42.452Z,50.30
2018-04-25T18:27:12.777Z,51.10
2018-04-25T18:29:42.939Z,50.90
2018-04-25T18:32:12.189Z,50.80
2018-04-25T18:34:42.979Z,50.70
2018-04-25T18:37:12.288Z,50.60
2018-04-25T18:39:41.978Z,51.40
2018-04-25T18:42:11.043Z,51.40
2018-04-25T18:44:41.152Z,50.90
2018-04-25T18:47:20.227Z,51.40
2018-04-25T18:49:49.358Z,51.30
2018-04-25T18:52:19.052Z,52.20
2018-04-25T18:54:48.920Z,52.20
2018-04-25T18:57:18.959Z,52.60
2018-04-25T18:59:48.878Z,53.30
2018-04-25T19:02:18.286Z,52.50
2018-04-25T19:04:47.355Z,52.60
2018-04-25T19:07:17.521Z,53.40
2018-04-25T19:09:46.574Z,53.40
2018-04-25T19:12:15.699Z,53.60
2018-04-25T19:14:45.096Z,53.80
2018-04-25T19:20:05.582Z,53.20
2018-04-25T19:22:34.528Z,53.80
2018-04-25T19:25:04.157Z,53.00
2018-04-25T19:27:33.321Z,53.60
2018-04-25T19:30:02.240Z,53.60
2018-04-25T19:32:32.042Z,53.30
2018-04-25T19:35:00.926Z,53.80
2018-04-25T19:37:31.942Z,54.00
2018-04-25T19:40:01.694Z,54.70
2018-04-25T19:42:32.108Z,54.00
2018-04-25T19:45:01.287Z,54.00
2018-04-25T19:47:31.796Z,55.70
2018-04-25T19:50:01.805Z,54.90
2018-04-25T19:52:31.746Z,55.10
2018-04-25T19:55:05.814Z,55.30
2018-04-25T19:57:35.803Z,55.30
2018-04-25T20:00:05.558Z,55.60
2018-04-25T20:02:34.539Z,55.90
2018-04-25T20:05:03.519Z,56.40
2018-04-25T20:07:33.649Z,56.80
2018-04-25T20:10:02.638Z,57.20
2018-04-25T20:12:32.506Z,58.00
2018-04-25T20:15:02.500Z,58.10
2018-04-25T20:17:31.402Z,58.30
2018-04-25T20:20:00.322Z,58.50
2018-04-25T20:22:29.271Z,58.90
2018-04-25T20:24:58.170Z,58.90
2018-04-25T20:31:18.953Z,59.30
2018-04-25T20:33:49.499Z,59.70
2018-04-25T20:36:18.510Z,59.50
2018-04-25T20:38:48.097Z,59.50
2018-04-25T20:41:17.031Z,59.40
2018-04-25T20:43:46.666Z,59.20
2018-04-25T20:46:15.590Z,59.20
2018-04-25T20:48:44.531Z,60.10
2018-04-25T20:51:14.190Z,58.80
2018-04-25T20:53:43.168Z,58.70
2018-04-25T20:56:13.034Z,59.10
2018-04-25T20:58:42.693Z,59.50
2018-04-25T21:01:11.741Z,59.40
2018-04-25T21:03:40.681Z,59.70
2018-04-25T21:06:09.619Z,59.30
2018-04-25T21:08:39.314Z,58.20
2018-04-25T21:11:08.242Z,58.20
2018-04-25T21:13:37.123Z,57.80
2018-04-25T21:16:05.994Z,59.40
2018-04-25T21:18:35.687Z,59.30
2018-04-25T21:21:04.569Z,59.30
2018-04-25T21:23:34.080Z,57.90
2018-04-25T21:26:02.980Z,57.70
2018-04-25T21:28:31.974Z,57.30
2018-04-25T21:31:00.881Z,58.00
2018-04-25T21:33:30.559Z,58.20
2018-04-25T21:35:59.492Z,58.20
2018-04-25T21:38:28.344Z,59.20
2018-04-25T21:40:57.266Z,60.30
2018-04-25T21:43:26.169Z,60.60
2018-04-25T21:45:55.086Z,60.80
2018-04-25T21:48:24.006Z,61.10
2018-04-25T21:50:52.903Z,61.30
2018-04-25T21:53:21.822Z,61.20
2018-04-25T21:55:50.758Z,61.80
2018-04-25T21:58:19.675Z,62.30
2018-04-25T22:00:48.566Z,62.40
2018-04-25T22:03:17.530Z,62.30
2018-04-25T22:05:46.399Z,62.60
2018-04-25T22:08:15.298Z,63.10
2018-04-25T22:10:44.209Z,62.90
2018-04-25T22:13:13.136Z,61.90
2018-04-25T22:15:42.081Z,62.70
2018-04-25T22:18:11.018Z,62.70
2018-04-25T22:20:40.015Z,63.00
2018-04-25T22:23:08.865Z,63.20
2018-04-25T22:25:38.742Z,63.20
2018-04-25T22:28:07.613Z,63.50
2018-04-25T22:30:36.619Z,63.80
2018-04-25T22:33:05.510Z,63.60
2018-04-25T22:35:34.393Z,64.20
2018-04-25T22:38:03.285Z,64.70
2018-04-25T22:40:32.185Z,64.40
2018-04-25T22:43:01.096Z,64.60
2018-04-25T22:45:30.057Z,65.80
2018-04-25T22:47:58.935Z,65.90
2018-04-25T22:50:29.188Z,65.90
2018-04-25T22:52:58.116Z,65.90
2018-04-25T22:55:27.018Z,65.80
2018-04-25T22:57:55.941Z,65.60
2018-04-25T23:00:24.953Z,66.00
2018-04-25T23:02:53.859Z,66.90
2018-04-25T23:05:22.755Z,68.20
2018-04-25T23:07:51.739Z,67.70
2018-04-25T23:10:21.357Z,67.20
2018-04-25T23:12:50.264Z,67.80
2018-04-25T23:15:19.194Z,68.50
2018-04-25T23:17:48.074Z,67.80
2018-04-25T23:20:17.712Z,66.30
2018-04-25T23:22:46.673Z,66.30
2018-04-25T23:25:16.319Z,67.90
2018-04-25T23:27:45.194Z,67.80
2018-04-25T23:30:14.179Z,67.00
2018-04-25T23:32:43.155Z,67.70
2018-04-25T23:35:12.031Z,67.90
2018-04-25T23:37:40.924Z,68.90
2018-04-25T23:40:10.571Z,69.10
2018-04-25T23:42:39.502Z,69.10
2018-04-25T23:45:08.427Z,68.60
2018-04-25T23:47:38.084Z,69.60
2018-04-25T23:50:07.014Z,69.50
2018-04-25T23:52:35.905Z,69.10
2018-04-25T23:55:05.576Z,68.50
2018-04-25T23:57:34.438Z,68.40
